Time;durP1;ratioP1;P1;durP2;ratioP2;P2;SDS_P1;SDS_P2;PMS_P1;PMS_P2;Temp;Humidity;BMP_temperature;BMP_pressure;BME280_temperature;BME280_humidity;BME280_pressure;Samples;Min_cycle;Max_cycle;Signal;HPM_P1;HPM_P2
2022/08/26 00:00:44;;;;;;;7.20;6.60;;;;;;;22.01;70.37;157025.53;5104276;28;20442;-83
2022/08/26 00:03:12;;;;;;;7.60;6.93;;;;;;;21.97;70.64;157015.09;5086900;28;20429;-83
2022/08/26 00:05:41;;;;;;;6.97;6.37;;;;;;;21.94;71.01;157007.25;5087456;28;20897;-83
2022/08/26 00:08:08;;;;;;;7.77;7.07;;;;;;;21.92;71.28;157000.72;5070326;28;20450;-83
2022/08/26 00:10:35;;;;;;;8.00;7.30;;;;;;;21.92;71.14;157000.72;5070367;28;20438;-83
2022/08/26 00:13:02;;;;;;;7.97;7.27;;;;;;;21.90;71.42;156995.47;5086775;28;20449;-83
2022/08/26 00:15:29;;;;;;;7.00;6.40;;;;;;;21.89;71.90;156992.88;5071204;28;20434;-83
2022/08/26 00:17:56;;;;;;;7.70;7.00;;;;;;;21.85;72.15;156985.00;5070336;28;20835;-83
2022/08/26 00:20:25;;;;;;;8.93;8.03;;;;;;;21.85;72.35;156985.00;5087403;28;20430;-83
2022/08/26 00:22:53;;;;;;;8.53;7.50;;;;;;;21.83;72.51;156979.78;5053205;28;20462;-83
2022/08/26 00:25:20;;;;;;;8.57;7.77;;;;;;;21.82;72.63;156975.84;5071317;28;20472;-83
2022/08/26 00:27:47;;;;;;;9.03;8.10;;;;;;;21.81;72.83;156974.56;5087198;28;20449;-83
2022/08/26 00:30:17;;;;;;;8.57;7.87;;;;;;;21.80;73.16;156971.94;5071550;28;20517;-83
2022/08/26 00:32:44;;;;;;;8.90;8.00;;;;;;;21.77;73.14;156964.09;5086747;28;20478;-83
2022/08/26 00:35:11;;;;;;;8.97;7.80;;;;;;;21.75;72.65;156958.91;5089881;28;20430;-83
2022/08/26 00:37:38;;;;;;;8.13;7.30;;;;;;;21.69;73.38;156943.22;5075777;28;20520;-83
2022/08/26 00:40:09;;;;;;;8.50;7.80;;;;;;;21.65;73.95;156932.78;5074031;28;20450;-83
2022/08/26 00:42:35;;;;;;;9.40;8.50;;;;;;;21.62;73.89;156924.97;5074038;28;20475;-83
2022/08/26 00:45:02;;;;;;;8.00;7.30;;;;;;;21.60;74.17;156919.75;5073538;28;20565;-83
2022/08/26 00:47:33;;;;;;;7.93;7.13;;;;;;;21.60;74.48;156919.75;5091043;28;20442;-83
2022/08/26 00:50:02;;;;;;;8.93;6.83;;;;;;;21.57;74.05;156911.91;5090579;28;20442;-83
2022/08/26 00:52:29;;;;;;;8.60;7.80;;;;;;;21.56;74.42;156907.97;5075408;28;20473;-83
2022/08/26 00:55:00;;;;;;;7.60;6.90;;;;;;;21.55;74.02;156906.66;5073440;28;20438;-83
2022/08/26 00:57:28;;;;;;;8.37;7.57;;;;;;;21.53;74.53;156901.44;5073878;28;20862;-83
2022/08/26 00:59:57;;;;;;;8.90;7.63;;;;;;;21.50;74.56;156892.34;5090514;28;20528;-83
2022/08/26 01:02:24;;;;;;;8.77;7.87;;;;;;;21.49;74.55;156891.03;5075006;28;20433;-83
2022/08/26 01:04:54;;;;;;;8.43;7.63;;;;;;;21.48;74.29;156887.06;5074444;28;20485;-83
2022/08/26 01:07:20;;;;;;;7.93;7.13;;;;;;;21.49;73.61;156891.03;5075071;28;20473;-83
2022/08/26 01:09:47;;;;;;;7.87;7.10;;;;;;;21.44;74.36;156877.97;5074514;28;20521;-83
2022/08/26 01:12:14;;;;;;;7.43;6.73;;;;;;;21.44;74.23;156877.97;5073541;28;20457;-83
2022/08/26 01:14:44;;;;;;;8.00;7.20;;;;;;;21.46;74.05;156881.88;5074390;28;20430;-83
2022/08/26 01:17:11;;;;;;;7.80;7.10;;;;;;;21.47;74.31;156885.75;5074386;28;20500;-83
2022/08/26 01:19:42;;;;;;;7.17;6.47;;;;;;;21.43;74.37;156875.34;5073229;28;20431;-83
2022/08/26 01:22:10;;;;;;;7.83;7.20;;;;;;;21.48;74.10;156888.38;5074947;28;20922;-83
2022/08/26 01:24:40;;;;;;;8.00;7.30;;;;;;;21.47;74.08;156885.75;5072677;28;20438;-83
2022/08/26 01:27:09;;;;;;;8.63;7.83;;;;;;;21.52;74.00;156898.84;5073002;28;20513;-83
2022/08/26 01:29:38;;;;;;;8.63;7.83;;;;;;;21.50;74.42;156893.59;5074146;28;20465;-83
2022/08/26 01:32:08;;;;;;;8.27;7.40;;;;;;;21.48;74.27;156888.38;5074524;28;20480;-83
2022/08/26 01:34:37;;;;;;;8.73;7.93;;;;;;;21.46;73.76;156883.19;5073938;28;20420;-83
2022/08/26 01:37:06;;;;;;;8.80;7.43;;;;;;;21.38;74.05;156862.28;5074342;28;20462;-83
2022/08/26 01:39:35;;;;;;;9.20;7.97;;;;;;;21.33;74.21;156849.25;5106593;28;20442;-83
2022/08/26 01:42:04;;;;;;;8.97;7.97;;;;;;;21.29;75.30;156838.78;5074387;28;20441;-83
2022/08/26 01:44:36;;;;;;;7.80;7.10;;;;;;;21.21;74.99;156817.91;5074026;28;20427;-83
2022/08/26 01:47:03;;;;;;;9.33;8.43;;;;;;;21.21;75.28;156817.91;5106193;28;20754;-83
2022/08/26 01:49:30;;;;;;;8.97;7.90;;;;;;;21.15;75.55;156802.25;5074092;28;20430;-83
2022/08/26 01:51:57;;;;;;;9.13;8.07;;;;;;;21.12;75.77;156794.44;5074380;28;20434;-83
2022/08/26 01:54:24;;;;;;;9.70;8.73;;;;;;;21.06;76.26;156780.06;5072200;28;20438;-83
2022/08/26 01:56:53;;;;;;;8.30;7.27;;;;;;;21.02;76.44;156769.56;5073625;28;20454;-83
2022/08/26 01:59:22;;;;;;;11.00;7.83;;;;;;;21.01;76.80;156765.66;5073635;28;20466;-83
2022/08/26 02:01:50;;;;;;;8.80;7.80;;;;;;;20.98;76.82;156759.13;5073919;28;20430;-83
2022/08/26 02:04:20;;;;;;;8.40;7.70;;;;;;;20.92;76.83;156742.16;5088794;28;20448;-83
2022/08/26 02:06:48;;;;;;;8.27;7.47;;;;;;;20.88;77.57;156733.06;5073912;28;20474;-83
2022/08/26 02:09:15;;;;;;;8.20;7.40;;;;;;;20.84;77.68;156722.59;5073695;28;20525;-83
2022/08/26 02:11:42;;;;;;;8.00;7.30;;;;;;;20.81;77.65;156713.47;5072601;28;20450;-83
2022/08/26 02:14:13;;;;;;;8.80;8.00;;;;;;;20.78;77.23;156706.97;5088734;28;20528;-83
2022/08/26 02:16:43;;;;;;;9.07;8.17;;;;;;;20.77;77.59;156703.03;5088900;28;20449;-83
2022/08/26 02:19:12;;;;;;;8.43;7.63;;;;;;;20.74;77.94;156695.19;5088988;28;20579;-83
2022/08/26 02:21:39;;;;;;;9.53;7.97;;;;;;;20.72;78.01;156689.97;5088888;28;20544;-83
2022/08/26 02:24:11;;;;;;;8.07;7.37;;;;;;;20.69;77.94;156682.16;5072977;28;20444;-83
2022/08/26 02:26:39;;;;;;;9.00;8.10;;;;;;;20.63;78.00;156669.09;5088765;28;20496;-83
2022/08/26 02:29:10;;;;;;;7.83;7.13;;;;;;;20.61;78.26;156663.91;5088740;28;20433;-83
2022/08/26 02:31:36;;;;;;;8.60;7.70;;;;;;;20.61;78.21;156663.91;5073304;28;20437;-83
2022/08/26 02:34:12;;;;;;;8.50;7.60;;;;;;;20.60;77.98;156659.94;5088395;28;20437;-83
2022/08/26 02:36:40;;;;;;;8.83;7.80;;;;;;;20.60;78.62;156661.28;5105747;28;20584;-83
2022/08/26 02:39:07;;;;;;;8.53;7.83;;;;;;;20.61;78.46;156662.59;5071663;28;20469;-83
2022/08/26 02:41:35;;;;;;;9.10;8.40;;;;;;;20.58;78.32;156656.06;5088574;28;20536;-83
2022/08/26 02:44:01;;;;;;;9.47;8.57;;;;;;;20.58;78.24;156656.06;5071321;28;20466;-83
2022/08/26 02:46:30;;;;;;;10.63;9.70;;;;;;;20.59;78.49;156658.69;5073283;28;20519;-83
2022/08/26 02:48:57;;;;;;;9.13;8.40;;;;;;;20.57;78.78;156653.44;5072756;28;20791;-83
2022/08/26 02:51:25;;;;;;;9.33;8.20;;;;;;;20.55;79.12;156646.91;5071532;28;20452;-83
2022/08/26 02:53:51;;;;;;;10.50;8.67;;;;;;;20.52;79.07;156640.41;5088091;28;20442;-83
2022/08/26 02:56:18;;;;;;;10.00;9.10;;;;;;;20.50;78.95;156635.19;5072296;28;20472;-82
2022/08/26 02:58:45;;;;;;;10.97;9.97;;;;;;;20.45;79.31;156620.84;5070425;28;20545;-83
2022/08/26 03:01:19;;;;;;;12.40;10.50;;;;;;;20.44;79.31;156619.53;5088136;28;20445;-83
2022/08/26 03:03:46;;;;;;;10.57;9.60;;;;;;;20.43;79.63;156615.63;5071077;28;20425;-83
2022/08/26 03:06:13;;;;;;;9.63;8.73;;;;;;;20.41;79.82;156611.69;5072643;28;20474;-83
2022/08/26 03:08:41;;;;;;;9.83;8.80;;;;;;;20.39;79.57;156605.16;5071210;28;20477;-83
2022/08/26 03:11:07;;;;;;;10.00;9.20;;;;;;;20.34;80.05;156593.44;5072389;28;20438;-83
2022/08/26 03:13:35;;;;;;;9.50;8.60;;;;;;;20.29;79.93;156579.09;5087633;28;21090;-83
2022/08/26 03:16:01;;;;;;;9.47;8.20;;;;;;;20.26;80.28;156571.25;5070849;28;20847;-83
2022/08/26 03:18:28;;;;;;;10.37;9.00;;;;;;;20.25;80.78;156570.00;5072397;28;20462;-82
2022/08/26 03:20:55;;;;;;;9.80;8.90;;;;;;;20.23;80.47;156564.69;5072322;28;20430;-83
2022/08/26 03:23:22;;;;;;;9.53;8.60;;;;;;;20.23;80.96;156564.69;5098675;28;20438;-82
2022/08/26 03:25:51;;;;;;;9.50;8.60;;;;;;;20.24;81.07;156566.06;5104632;28;20485;-83
2022/08/26 03:28:18;;;;;;;11.17;9.80;;;;;;;20.23;81.15;156564.69;5072161;28;20430;-83
2022/08/26 03:30:44;;;;;;;9.67;8.87;;;;;;;20.16;81.06;156546.44;5071965;28;20465;-83
2022/08/26 03:33:12;;;;;;;10.00;9.07;;;;;;;20.13;80.98;156538.63;5087699;28;20489;-83
2022/08/26 03:35:41;;;;;;;9.30;8.50;;;;;;;20.07;80.54;156522.94;5070341;28;20287;-83
2022/08/26 03:38:08;;;;;;;9.23;8.33;;;;;;;20.04;81.30;156516.44;5104257;28;20442;-83
2022/08/26 03:40:35;;;;;;;10.60;9.57;;;;;;;20.01;81.39;156508.59;5104247;28;20794;-83
2022/08/26 03:43:05;;;;;;;10.60;9.60;;;;;;;20.01;81.67;156508.59;5071947;28;20980;-83
2022/08/26 03:45:32;;;;;;;10.40;9.40;;;;;;;20.02;82.17;156511.22;5104093;28;20438;-83
2022/08/26 03:47:59;;;;;;;10.73;9.83;;;;;;;20.01;82.67;156507.34;5070698;28;20538;-83
2022/08/26 03:50:27;;;;;;;10.10;9.20;;;;;;;19.96;82.33;156494.31;5071695;28;20426;-83
2022/08/26 03:52:54;;;;;;;10.30;9.30;;;;;;;19.95;82.54;156493.00;5070710;28;20438;-83
2022/08/26 03:55:23;;;;;;;10.07;8.97;;;;;;;19.94;82.03;156489.06;5070274;28;21000;-82
2022/08/26 03:57:50;;;;;;;10.70;9.70;;;;;;;19.94;82.11;156489.06;5053608;28;20839;-83
2022/08/26 04:00:19;;;;;;;10.27;9.27;;;;;;;19.92;82.48;156483.84;5071797;28;20440;-83
2022/08/26 04:02:49;;;;;;;9.43;8.63;;;;;;;19.87;81.84;156470.81;5072110;28;20925;-83
2022/08/26 04:05:18;;;;;;;10.40;9.30;;;;;;;19.85;82.46;156466.94;5071377;28;20414;-83
2022/08/26 04:07:45;;;;;;;10.03;9.13;;;;;;;19.81;82.69;156455.16;5072139;28;20470;-83
2022/08/26 04:10:14;;;;;;;9.20;8.30;;;;;;;19.79;82.75;156449.94;5069890;28;20438;-83
2022/08/26 04:12:41;;;;;;;9.20;8.37;;;;;;;19.77;82.85;156446.06;5087476;28;20916;-83
2022/08/26 04:15:11;;;;;;;10.70;9.50;;;;;;;19.75;82.68;156440.81;5103268;28;20488;-83
2022/08/26 04:17:39;;;;;;;9.83;8.83;;;;;;;19.73;82.95;156434.28;5070632;28;20442;-83
2022/08/26 04:20:07;;;;;;;9.87;8.83;;;;;;;19.72;82.94;156431.72;5103962;28;20456;-83
2022/08/26 04:22:34;;;;;;;8.60;7.90;;;;;;;19.69;82.83;156423.88;5070196;28;20437;-83
2022/08/26 04:25:01;;;;;;;8.80;8.07;;;;;;;19.67;83.03;156419.94;5069945;28;20532;-83
2022/08/26 04:27:27;;;;;;;9.03;8.23;;;;;;;19.66;82.97;156416.06;5071793;28;20466;-83
2022/08/26 04:29:54;;;;;;;9.50;8.70;;;;;;;19.60;82.94;156400.41;5104067;28;20941;-83
2022/08/26 04:32:22;;;;;;;8.60;7.90;;;;;;;19.62;82.98;156405.66;5103555;28;20809;-83
2022/08/26 04:34:50;;;;;;;9.43;8.63;;;;;;;19.60;83.26;156400.41;5086682;28;20444;-83
2022/08/26 04:37:17;;;;;;;10.30;9.33;;;;;;;19.58;83.22;156395.19;5070140;28;20864;-83
2022/08/26 04:39:43;;;;;;;10.50;9.50;;;;;;;19.58;83.16;156396.50;5071480;28;20434;-83
2022/08/26 04:42:11;;;;;;;10.43;9.60;;;;;;;19.60;82.90;156400.41;5071209;28;20441;-83
2022/08/26 04:44:38;;;;;;;9.57;8.77;;;;;;;19.61;83.05;156403.03;5071079;28;20518;-83
2022/08/26 04:47:05;;;;;;;9.67;8.77;;;;;;;19.63;83.05;156408.22;5071255;28;20464;-83
2022/08/26 04:49:31;;;;;;;9.20;8.40;;;;;;;19.62;82.91;156405.66;5086734;28;20434;-83
2022/08/26 04:52:00;;;;;;;9.70;8.80;;;;;;;19.62;82.95;156406.91;5086873;28;20433;-83
2022/08/26 04:54:26;;;;;;;9.37;8.63;;;;;;;19.66;83.00;156417.38;5069858;28;20781;-83
2022/08/26 04:56:53;;;;;;;9.40;8.60;;;;;;;19.68;82.62;156422.56;5052881;28;20541;-83
2022/08/26 04:59:20;;;;;;;9.07;8.37;;;;;;;19.69;83.00;156423.88;5071257;28;20441;-83
2022/08/26 05:01:49;;;;;;;10.60;9.13;;;;;;;19.70;83.01;156426.47;5069988;28;20489;-83
2022/08/26 05:04:16;;;;;;;8.83;8.03;;;;;;;19.72;82.71;156431.72;5070748;28;20437;-83
2022/08/26 05:06:43;;;;;;;12.17;9.87;;;;;;;19.75;82.85;156439.56;5086632;28;20473;-83
2022/08/26 05:09:12;;;;;;;9.40;8.60;;;;;;;19.79;82.42;156449.94;5069843;28;20437;-83
2022/08/26 05:11:39;;;;;;;9.50;8.60;;;;;;;19.83;82.65;156461.66;5071197;28;20465;-83
2022/08/26 05:14:06;;;;;;;9.80;8.97;;;;;;;19.83;82.41;156461.66;5070320;28;20438;-83
2022/08/26 05:16:33;;;;;;;9.47;8.67;;;;;;;19.87;82.43;156470.81;5071116;28;20441;-83
2022/08/26 05:19:00;;;;;;;9.67;8.77;;;;;;;19.87;82.48;156472.13;5071022;28;20500;-83
2022/08/26 05:21:28;;;;;;;10.10;9.10;;;;;;;19.93;82.23;156486.47;5072705;28;20438;-83
2022/08/26 05:23:55;;;;;;;18.63;8.80;;;;;;;19.96;82.33;156494.31;5074224;28;20426;-83
2022/08/26 05:26:25;;;;;;;10.53;9.53;;;;;;;20.01;82.31;156507.34;5073143;28;20477;-83
2022/08/26 05:28:52;;;;;;;10.07;9.17;;;;;;;20.09;81.63;156528.22;5090115;28;20481;-83
2022/08/26 05:31:22;;;;;;;9.50;8.40;;;;;;;20.13;81.99;156538.63;5074308;28;20442;-84
2022/08/26 05:33:49;;;;;;;9.40;8.60;;;;;;;20.19;82.02;156552.97;5106930;28;20945;-83
2022/08/26 05:36:17;;;;;;;9.97;8.53;;;;;;;20.21;81.63;156558.19;5074462;28;20473;-83
2022/08/26 05:38:45;;;;;;;9.60;8.70;;;;;;;20.15;81.67;156542.56;5072915;28;20430;-83
2022/08/26 05:41:16;;;;;;;9.27;8.40;;;;;;;20.16;81.72;156546.44;5089568;28;20456;-83
2022/08/26 05:43:45;;;;;;;9.63;8.73;;;;;;;20.15;82.01;156543.81;5090126;28;20529;-83
2022/08/26 05:46:12;;;;;;;10.33;9.47;;;;;;;20.15;82.28;156543.81;5074151;28;20488;-83
2022/08/26 05:48:39;;;;;;;10.33;9.40;;;;;;;20.17;82.40;156549.06;5106518;28;20483;-83
2022/08/26 05:51:07;;;;;;;9.90;9.00;;;;;;;20.22;82.47;156560.81;5073906;28;20790;-83
2022/08/26 05:53:34;;;;;;;11.23;9.63;;;;;;;20.25;81.94;156570.00;5106633;28;20549;-83
2022/08/26 05:56:03;;;;;;;10.10;9.10;;;;;;;20.46;81.90;156624.78;5088903;28;20478;-83
2022/08/26 05:58:30;;;;;;;11.50;10.30;;;;;;;20.68;81.18;156679.56;5072563;28;20521;-83
2022/08/26 06:01:00;;;;;;;12.10;10.87;;;;;;;20.84;80.07;156722.59;5074305;28;20536;-83
2022/08/26 06:03:27;;;;;;;10.77;9.60;;;;;;;20.91;79.37;156740.88;5055799;28;20437;-83
2022/08/26 06:05:54;;;;;;;10.17;9.27;;;;;;;20.87;78.54;156729.09;5072166;28;20445;-83
2022/08/26 06:08:21;;;;;;;11.17;10.20;;;;;;;20.88;78.89;156731.75;5073448;28;20461;-83
2022/08/26 06:10:50;;;;;;;10.60;9.70;;;;;;;20.92;78.56;156742.16;5073746;28;20519;-83
2022/08/26 06:13:18;;;;;;;11.23;9.80;;;;;;;20.93;78.44;156746.09;5072123;28;20442;-83
2022/08/26 06:15:46;;;;;;;10.33;9.43;;;;;;;21.00;78.33;156763.03;5073193;28;20441;-83
2022/08/26 06:18:15;;;;;;;15.13;10.07;;;;;;;21.05;77.62;156776.06;5073551;28;20845;-83
2022/08/26 06:20:43;;;;;;;11.17;10.00;;;;;;;21.09;77.70;156786.59;5073689;28;20522;-83
2022/08/26 06:25:55;;;;;;;11.70;10.70;;;;;;;21.23;76.90;156824.41;5073199;28;20433;-83
2022/08/26 06:28:23;;;;;;;11.13;10.00;;;;;;;21.32;76.32;156846.63;5073134;28;20877;-83
2022/08/26 06:30:50;;;;;;;12.50;9.80;;;;;;;21.46;76.18;156883.19;5073194;28;20477;-83
2022/08/26 06:33:18;;;;;;;11.13;9.77;;;;;;;21.56;75.80;156909.28;5071888;28;20595;-83
2022/08/26 06:35:45;;;;;;;12.63;10.00;;;;;;;21.72;75.36;156949.75;5071519;28;20767;-83
2022/08/26 06:38:12;;;;;;;12.40;10.00;;;;;;;21.83;74.95;156978.47;5073157;28;20430;-83
2022/08/26 06:40:41;;;;;;;9.70;8.90;;;;;;;21.98;74.18;157016.38;5071914;28;20812;-83
2022/08/26 06:43:09;;;;;;;9.50;8.70;;;;;;;22.13;73.29;157056.88;5072759;28;20814;-83
2022/08/26 06:45:35;;;;;;;8.93;8.10;;;;;;;22.16;73.00;157064.69;5088278;28;20442;-83
2022/08/26 06:48:02;;;;;;;9.50;8.53;;;;;;;22.26;72.64;157089.53;5105262;28;20458;-83
2022/08/26 06:50:30;;;;;;;9.23;8.43;;;;;;;22.39;72.45;157124.81;5072841;28;20458;-83
2022/08/26 06:52:57;;;;;;;9.33;8.53;;;;;;;22.54;72.03;157162.66;5088251;28;20845;-83
2022/08/26 06:55:23;;;;;;;8.60;7.80;;;;;;;22.61;70.75;157180.94;5088167;28;20537;-84
2022/08/26 06:57:50;;;;;;;8.77;8.07;;;;;;;22.73;70.34;157212.34;5072588;28;21025;-83
2022/08/26 07:00:18;;;;;;;8.80;8.00;;;;;;;22.83;70.45;157238.47;5072710;28;20515;-83
2022/08/26 07:02:45;;;;;;;9.13;8.33;;;;;;;22.99;70.13;157280.28;5071029;28;20460;-83
2022/08/26 07:05:12;;;;;;;8.90;8.10;;;;;;;23.14;69.50;157316.91;5072260;28;20520;-83
2022/08/26 07:07:40;;;;;;;8.70;7.80;;;;;;;23.21;68.95;157335.19;5072946;28;20470;-83
2022/08/26 07:10:07;;;;;;;9.70;8.90;;;;;;;23.36;68.51;157374.38;5087939;28;20533;-83
2022/08/26 07:12:34;;;;;;;9.30;8.50;;;;;;;23.41;67.87;157387.50;5072558;28;20814;-83
2022/08/26 07:15:01;;;;;;;9.13;8.43;;;;;;;23.54;67.44;157421.47;5087785;28;20932;-83
2022/08/26 07:17:28;;;;;;;9.07;8.27;;;;;;;23.70;66.80;157463.31;5088108;28;20448;-83
2022/08/26 07:19:55;;;;;;;8.70;7.80;;;;;;;23.86;66.99;157505.16;5072308;28;20867;-83
2022/08/26 07:22:21;;;;;;;8.33;7.53;;;;;;;24.10;66.48;157567.97;5072446;28;20478;-83
2022/08/26 07:24:50;;;;;;;9.03;8.23;;;;;;;24.39;65.73;157642.50;5104487;28;20536;-83
2022/08/26 07:27:17;;;;;;;8.90;8.20;;;;;;;24.58;64.87;157690.91;5072385;28;20509;-83
2022/08/26 07:29:44;;;;;;;9.00;8.10;;;;;;;24.64;64.33;157707.94;5072073;28;20456;-83
2022/08/26 07:32:12;;;;;;;9.10;8.30;;;;;;;24.67;64.14;157714.47;5072652;28;20504;-83
2022/08/26 07:34:40;;;;;;;8.27;7.47;;;;;;;24.69;64.35;157719.69;5070362;28;20444;-83
2022/08/26 07:37:07;;;;;;;9.23;8.43;;;;;;;24.73;63.93;157731.44;5070775;28;20679;-83
2022/08/26 07:39:34;;;;;;;9.30;8.40;;;;;;;24.89;64.83;157772.03;5070492;28;20438;-83
2022/08/26 07:42:03;;;;;;;8.63;7.83;;;;;;;24.84;65.52;157758.97;5070968;28;20448;-83
2022/08/26 07:44:30;;;;;;;9.20;8.30;;;;;;;24.94;65.29;157785.13;5086775;28;20525;-83
2022/08/26 07:46:57;;;;;;;8.83;8.13;;;;;;;25.18;64.94;157847.94;5072124;28;20542;-83
2022/08/26 07:49:25;;;;;;;9.67;8.67;;;;;;;25.32;64.25;157884.59;5070679;28;20496;-83
2022/08/26 07:51:52;;;;;;;9.93;8.30;;;;;;;25.20;64.06;157853.22;5072239;28;20441;-83
2022/08/26 07:54:19;;;;;;;9.40;8.60;;;;;;;25.00;64.61;157800.84;5087286;28;20442;-83
2022/08/26 07:56:48;;;;;;;10.07;9.10;;;;;;;24.85;65.71;157761.59;5069874;28;20578;-81
2022/08/26 07:59:17;;;;;;;10.13;8.43;;;;;;;24.72;66.01;157727.53;5072011;28;20419;-83
2022/08/26 08:01:44;;;;;;;10.17;9.23;;;;;;;24.76;66.45;157737.97;5087543;28;20526;-83
2022/08/26 08:04:11;;;;;;;9.07;8.30;;;;;;;24.89;66.15;157772.03;5071587;28;20525;-83
2022/08/26 08:06:38;;;;;;;9.20;8.30;;;;;;;24.76;66.08;157737.97;5071635;28;20525;-83
2022/08/26 08:09:05;;;;;;;8.80;7.90;;;;;;;24.77;66.36;157740.63;5087115;28;20497;-83
2022/08/26 08:11:32;;;;;;;10.67;8.47;;;;;;;24.86;66.09;157764.19;5071406;28;20442;-83
2022/08/26 08:14:00;;;;;;;9.43;8.53;;;;;;;24.94;65.85;157785.13;5069927;28;20449;-83
2022/08/26 08:16:29;;;;;;;10.00;9.20;;;;;;;25.00;65.25;157799.53;5086982;28;20442;-83
2022/08/26 08:18:56;;;;;;;12.43;10.07;;;;;;;25.09;64.99;157824.41;5070366;28;20525;-83
2022/08/26 08:21:23;;;;;;;10.03;9.13;;;;;;;25.22;65.06;157858.44;5053679;28;20452;-83
2022/08/26 08:23:50;;;;;;;10.33;9.23;;;;;;;25.40;64.20;157904.22;5086925;28;20437;-83
2022/08/26 08:26:17;;;;;;;10.00;8.70;;;;;;;25.49;64.44;157926.53;5070021;28;21012;-83
2022/08/26 08:28:45;;;;;;;9.57;8.77;;;;;;;25.65;64.08;157969.75;5070074;28;20484;-83
2022/08/26 08:31:19;;;;;;;9.57;8.70;;;;;;;25.79;64.00;158006.38;5070160;28;20533;-83
2022/08/26 08:33:47;;;;;;;8.93;8.23;;;;;;;25.73;63.14;157990.69;5104001;28;20438;-83
2022/08/26 08:36:15;;;;;;;9.70;8.70;;;;;;;25.86;62.42;158023.41;5086785;28;20430;-83
2022/08/26 08:38:42;;;;;;;11.03;8.93;;;;;;;25.95;62.54;158046.94;5071514;28;20935;-83
2022/08/26 08:41:20;;;;;;;10.93;9.63;;;;;;;25.63;63.62;157963.19;5071602;28;20444;-83
2022/08/26 08:43:47;;;;;;;10.50;9.40;;;;;;;25.39;63.73;157902.91;5070297;28;20434;-83
2022/08/26 08:46:18;;;;;;;10.03;9.03;;;;;;;25.52;63.15;157935.72;5086481;28;20453;-83
2022/08/26 08:48:48;;;;;;;9.73;8.83;;;;;;;25.47;62.72;157922.56;5071510;28;20450;-82
2022/08/26 08:51:19;;;;;;;9.37;8.57;;;;;;;25.43;63.39;157913.41;5070164;28;20572;-83
2022/08/26 08:53:48;;;;;;;10.20;9.03;;;;;;;25.30;63.71;157879.38;5070080;28;20430;-83
2022/08/26 08:56:20;;;;;;;9.33;8.43;;;;;;;25.39;63.43;157902.91;5071026;28;20478;-83
2022/08/26 08:58:52;;;;;;;9.47;8.53;;;;;;;25.50;63.23;157929.13;5074986;28;20419;-83
2022/08/26 09:01:28;;;;;;;8.80;7.97;;;;;;;25.69;62.09;157978.88;5073774;28;20721;-83
2022/08/26 09:04:08;;;;;;;7.90;7.20;;;;;;;25.79;60.24;158006.38;5074637;28;20477;-83
2022/08/26 09:06:34;;;;;;;8.77;7.97;;;;;;;25.83;60.78;158015.53;5074646;28;20528;-84
2022/08/26 09:09:03;;;;;;;8.47;7.77;;;;;;;25.94;60.53;158044.34;5074788;28;20461;-84
2022/08/26 09:11:30;;;;;;;8.13;7.43;;;;;;;26.31;57.86;158139.97;5105684;28;20534;-84
2022/08/26 09:13:56;;;;;;;7.93;7.33;;;;;;;26.22;57.07;158116.38;5053448;28;20504;-83
2022/08/26 09:16:27;;;;;;;7.67;7.00;;;;;;;26.28;56.62;158133.44;5054530;28;20841;-83
2022/08/26 09:19:09;;;;;;;7.27;6.57;;;;;;;26.29;54.78;158136.03;5087090;28;20419;-83
2022/08/26 09:21:37;;;;;;;7.00;6.27;;;;;;;26.25;54.10;158125.56;5054080;28;20509;-84
2022/08/26 09:24:04;;;;;;;6.43;5.93;;;;;;;26.18;54.12;158107.25;5086841;28;21143;-83
2022/08/26 09:26:43;;;;;;;6.97;6.37;;;;;;;26.21;54.38;158115.06;5052921;28;20437;-84
2022/08/26 09:29:20;;;;;;;6.40;5.90;;;;;;;26.20;54.10;158112.47;5053066;28;20552;-83
2022/08/26 09:31:47;;;;;;;7.20;6.60;;;;;;;26.30;55.01;158137.34;5054825;28;20813;-83
2022/08/26 09:34:18;;;;;;;6.70;6.20;;;;;;;26.42;54.38;158168.81;5069656;28;20443;-83
2022/08/26 09:36:46;;;;;;;7.57;5.57;;;;;;;26.60;54.74;158217.25;5056552;28;20496;-83
2022/08/26 09:39:35;;;;;;;8.17;7.47;;;;;;;26.75;53.08;158253.91;5074631;28;20952;-83
2022/08/26 09:42:08;;;;;;;7.70;7.00;;;;;;;26.70;53.29;158240.81;5074620;28;20778;-83
2022/08/26 09:44:36;;;;;;;6.87;6.27;;;;;;;26.84;54.21;158277.56;5074285;28;20414;-83
2022/08/26 09:47:05;;;;;;;7.53;6.83;;;;;;;27.07;53.74;158337.81;5072836;28;20446;-83
2022/08/26 09:49:35;;;;;;;10.20;7.50;;;;;;;27.24;53.15;158381.06;5074058;28;20462;-84
2022/08/26 09:52:13;;;;;;;7.43;6.83;;;;;;;27.27;53.42;158390.19;5072845;28;20456;-84
2022/08/26 09:54:41;;;;;;;7.93;7.13;;;;;;;27.38;52.74;158419.03;5073837;28;20837;-83
2022/08/26 09:57:21;;;;;;;7.80;7.20;;;;;;;27.50;53.13;158450.56;5106010;28;20454;-83
2022/08/26 09:59:49;;;;;;;11.20;7.50;;;;;;;27.75;53.51;158516.06;5073997;28;20422;-84
2022/08/26 10:02:24;;;;;;;9.03;8.13;;;;;;;27.76;53.26;158518.72;5106435;28;20930;-84
2022/08/26 10:04:55;;;;;;;8.97;7.67;;;;;;;27.98;53.01;158575.09;5072509;28;20479;-83
2022/08/26 10:07:38;;;;;;;8.03;7.23;;;;;;;28.04;52.05;158589.56;5073779;28;20573;-83
2022/08/26 10:10:08;;;;;;;9.27;8.27;;;;;;;27.98;52.56;158573.75;5072199;28;20449;-83
2022/08/26 10:12:38;;;;;;;8.40;7.60;;;;;;;27.93;52.52;158561.97;5064291;28;20468;-83
2022/08/26 10:15:10;;;;;;;9.27;7.33;;;;;;;27.80;52.32;158529.16;5071926;28;20430;-84
2022/08/26 10:17:40;;;;;;;12.03;8.17;;;;;;;27.69;51.53;158500.31;5072211;28;20445;-83
2022/08/26 10:20:11;;;;;;;11.70;8.17;;;;;;;27.67;52.93;158495.09;5089089;28;20461;-83
2022/08/26 10:22:42;;;;;;;10.30;7.97;;;;;;;28.16;52.21;158621.00;5073901;28;20434;-83
2022/08/26 10:25:12;;;;;;;8.57;7.77;;;;;;;28.19;51.92;158630.19;5088673;28;20437;-83
2022/08/26 10:27:42;;;;;;;8.43;7.37;;;;;;;28.20;52.11;158631.47;5072025;28;20461;-83
2022/08/26 10:30:13;;;;;;;10.17;8.40;;;;;;;28.33;52.05;158665.56;5073493;28;20819;-83
2022/08/26 10:32:41;;;;;;;9.90;8.33;;;;;;;28.41;52.17;158686.53;5073831;28;20763;-83
2022/08/26 10:35:13;;;;;;;10.30;7.63;;;;;;;28.52;51.27;158715.41;5071481;28;20473;-83
2022/08/26 10:37:42;;;;;;;8.30;7.60;;;;;;;28.62;51.38;158740.41;5105748;28;20545;-83
2022/08/26 10:40:13;;;;;;;10.17;7.77;;;;;;;28.63;51.90;158744.31;5105696;28;20434;-83
2022/08/26 10:42:43;;;;;;;10.13;8.10;;;;;;;28.66;50.62;158750.84;5073606;28;20481;-83
2022/08/26 10:45:13;;;;;;;8.57;7.70;;;;;;;28.62;51.59;158741.66;5072516;28;20426;-83
2022/08/26 10:47:45;;;;;;;9.07;7.27;;;;;;;28.86;50.79;158803.31;5073399;28;20430;-83
2022/08/26 10:50:13;;;;;;;10.30;8.10;;;;;;;29.09;50.34;158862.34;5073008;28;20452;-84
2022/08/26 10:52:52;;;;;;;10.57;7.80;;;;;;;29.04;50.24;158849.25;5073331;28;20435;-83
2022/08/26 10:55:24;;;;;;;8.83;8.03;;;;;;;28.79;49.67;158786.28;5088250;28;20441;-84
2022/08/26 10:57:57;;;;;;;10.37;8.80;;;;;;;28.71;50.07;158763.97;5088282;28;20508;-84
2022/08/26 11:03:25;;;;;;;9.90;8.87;;;;;;;28.30;50.15;158659.00;5088202;28;20473;-83
2022/08/26 11:06:20;;;;;;;9.50;8.33;;;;;;;28.36;50.23;158673.44;5070736;28;20990;-83
2022/08/26 11:08:47;;;;;;;12.20;8.30;;;;;;;28.29;49.64;158656.41;5072542;28;20453;-83
2022/08/26 11:11:41;;;;;;;10.23;9.23;;;;;;;28.26;50.57;158648.53;5104878;28;20434;-84
2022/08/26 11:14:08;;;;;;;10.07;8.20;;;;;;;28.21;49.57;158634.09;5104908;28;20444;-84
2022/08/26 11:16:38;;;;;;;8.80;8.00;;;;;;;28.03;50.25;158586.91;5072119;28;20461;-83
2022/08/26 11:19:06;;;;;;;9.70;7.93;;;;;;;28.09;50.06;158602.66;5071406;28;20430;-83
2022/08/26 11:21:48;;;;;;;9.67;8.20;;;;;;;28.00;50.41;158579.00;5071025;28;20450;-84
2022/08/26 11:24:41;;;;;;;8.97;7.40;;;;;;;27.98;50.04;158573.75;5104983;28;20533;-83
2022/08/26 11:27:11;;;;;;;9.20;7.60;;;;;;;28.02;50.67;158584.28;5071657;28;20438;-84
2022/08/26 11:29:55;;;;;;;8.90;8.00;;;;;;;28.10;49.13;158606.56;5070837;28;20466;-84
2022/08/26 11:32:27;;;;;;;9.60;8.57;;;;;;;28.12;48.05;158611.81;5072491;28;20549;-84
2022/08/26 11:34:58;;;;;;;9.20;7.80;;;;;;;27.97;48.84;158572.44;5104720;28;20551;-84